Aviation Digital Data Service (ADDS)

Output produced by METARs form (0243 UTC 24 July 2017)
found at http://www.aviationweather.gov/adds/metars/
 
TAF KIAB 240200Z 2402/2508 VRB06KT 9999 SKC QNH2990INS 
     BECMG 2414/2415 13009KT 9999 SKC QNH2995INS TX34/2421Z TN22/2412Z
       
KIAD 240239Z 2403/2506 23010G20KT 3SM TSRA SCT035CB BKN120 
     FM240315 VRB03KT P6SM -SHRA VCTS BKN070CB 
     FM240600 VRB03KT P6SM BKN070 
     FM241200 28005KT P6SM SCT250 
     FM241400 30007KT P6SM SCT040 
     FM250400 VRB03KT P6SM SCT070
       
KIAG 232340Z 2400/2424 07009KT 5SM BR VCSH BKN040 
     FM240300 06009KT 5SM BR BKN015 
     FM240900 VRB03KT 2SM BR BKN007 
     FM241300 29005KT P6SM BKN025
       
KIAH 232330Z 2400/2506 17005KT P6SM FEW060 SCT180 BKN250 
     FM240900 21005KT P6SM SCT015 BKN150 
     FM241500 22009KT P6SM SCT025 SCT150 
     FM241900 22007KT P6SM FEW050 SCT150 
     FM250100 18007KT P6SM SCT150
       
KICT 232320Z 2400/2424 04006KT P6SM SKC 
     FM241100 09005KT P6SM SCT250
       
KIDA 232338Z 2400/2424 18011KT P6SM SCT100 
     FM240200 35006KT P6SM SKC 
     FM241700 22009KT P6SM FEW100 BKN200 
     FM242100 19011KT P6SM VCTS FEW080 SCT100CB BKN130
       
KIFP 240050Z 2401/2424 16010KT P6SM FEW150 
     FM240130 07015G30KT P6SM BKN150 
     FM240300 16013KT P6SM BKN150
       
KILG 240215Z 2402/2424 08008KT P6SM BKN007 BKN030 BKN035 
     FM240300 11006KT P6SM VCSH BKN007 BKN030 BKN035 
     TEMPO 2403/2406 4SM -TSRA SCT005CB BKN025 OVC030 
     FM240600 14006KT P6SM VCSH BKN030 OVC040 
     TEMPO 2406/2408 6SM -SHRA OVC030 
     FM241000 VRB03KT P6SM OVC035 
     FM241500 29006KT P6SM BKN050 
     FM241700 34009KT P6SM SCT040 
     FM241900 02007KT P6SM SCT040 
     FM242000 07007KT P6SM SCT040 
     FM242300 36005KT P6SM SCT250
       
KILM 232339Z 2400/2424 22013KT P6SM BKN150 
     FM240500 22006KT P6SM BKN250 
     FM241300 23010KT P6SM VCTS FEW030CB BKN050 
     FM241800 22011G17KT P6SM VCTS SCT030CB BKN045 
     TEMPO 2418/2422 3SM TSRA SCT015 BKN025CB OVC040
       
KILN 232320Z 2400/2424 23007KT P6SM VCSH SCT030 BKN080 
     FM240200 29005KT P6SM SCT250 
     FM240600 25005KT 5SM BR SCT250 
     FM240800 25004KT 2SM BR SCT250 
     FM241300 26005KT P6SM SCT040 
     FM241800 30009KT P6SM SCT045
       
KIND 240226Z 2402/2506 VRB04KT P6SM SCT040 
     FM240400 VRB03KT P6SM SCT200
       
KINT 232338Z 2400/2424 VRB05KT P6SM SCT040 BKN120
       
KINW 232327Z 2400/2424 18012G22KT P6SM SCT080 OVC120 
     TEMPO 2401/2403 VRB15G25KT 5SM -TSRA BKN080CB 
     FM240330 VRB06KT P6SM FEW080 BKN120 
     FM241700 24007KT P6SM VCSH SCT080 BKN100
       
KIPL 232320Z 2400/2424 13014KT 4SM HZ SCT030 BKN100 
     FM240600 15015KT P6SM FEW100 SCT150 SCT250 
     FM241200 13010KT P6SM BKN150 BKN250
       
KIPT 240203Z 2402/2424 15014G21KT 5SM -RA BR SCT015 BKN050 OVC080 
     FM240600 10004KT 4SM BR OVC004 
     FM241200 29003KT 2SM BR OVC004 
     FM241500 25004KT 4SM BR OVC015 
     FM241800 21005KT P6SM OVC050
       
KISM 232326Z 2400/2424 20003KT P6SM BKN200 
     FM241400 22006KT P6SM SCT025 BKN200 
     FM241700 22008KT P6SM VCTS SCT040CB BKN120
       
KISN 232320Z 2400/2424 25005KT P6SM SKC 
     FM240600 15007KT P6SM FEW120 FEW250 WS020/16040KT 
     FM241300 17011KT P6SM FEW110 FEW250 
     FM241700 22013KT P6SM FEW100 FEW200 
     FM242000 32013KT P6SM SCT250
       
KISO 240223Z 2402/2424 VRB06KT P6SM SCT050 BKN130 
     FM240900 22008KT P6SM FEW025 SCT150 
     FM241500 22010G18KT P6SM -SHRA VCTS SCT050CB BKN100 AMD LTD TO CLD VIS AND WIND
       
KISP 240237Z 2403/2424 09010KT 6SM -SHRA SCT025 
     TEMPO 2404/2406 BKN025 
     FM240600 10013G19KT 6SM -SHRA SCT015 OVC025 
     FM240800 09013G22KT 4SM SHRA BR OVC015 
     FM241000 07012G18KT 4SM SHRA OVC008 
     FM241500 05012G18KT 6SM -SHRA OVC015 
     FM241900 05010KT P6SM BKN025 
     FM242200 05009KT P6SM BKN050
       
KITH 232332Z 2400/2424 11007KT P6SM BKN050 
     TEMPO 2400/2404 5SM -SHRA BR BKN025 
     FM240400 15010KT 5SM -SHRA BR OVC025 
     FM240700 17008KT 4SM -SHRA BR OVC012 
     FM241600 23008KT P6SM -SHRA BKN035 
     FM242000 VRB06KT P6SM BKN035
       
KIWA 240142Z 2402/2424 15015KT P6SM VCTS SCT080CB BKN150 BKN250 
     TEMPO 2402/2403 VRB18G28KT 3SM TSRA BLDU BKN080CB BKN120 
     FM240300 07015G25KT P6SM VCTS FEW070CB BKN100 BKN200 
     FM240500 10009KT P6SM VCSH SCT070 BKN100 OVC200 
     FM241900 25007KT P6SM SCT070 SCT120 BKN200 AMD LTD TO CLD VIS AND WIND 2403/2413
       
KIXD 232320Z 2400/2424 03005KT P6SM FEW250